createdAt,value
2022-10-08T00:02:05.937Z,95.10
2022-10-08T00:05:09.604Z,95.20
2022-10-08T00:08:12.562Z,95.40
2022-10-08T00:11:18.442Z,95.60
2022-10-08T00:14:23.472Z,95.50
2022-10-08T00:17:28.050Z,95.60
2022-10-08T00:20:30.927Z,95.60
2022-10-08T00:23:34.897Z,95.50
2022-10-08T00:26:43.617Z,95.50
2022-10-08T00:29:46.946Z,95.60
2022-10-08T00:32:51.256Z,95.60
2022-10-08T00:35:54.188Z,95.60
2022-10-08T00:38:57.914Z,95.70
2022-10-08T00:42:02.201Z,97.80
2022-10-08T00:45:06.374Z,98.40
2022-10-08T00:48:13.629Z,97.60
2022-10-08T00:51:16.521Z,96.50
2022-10-08T00:54:21.423Z,95.90
2022-10-08T00:57:24.723Z,95.60
2022-10-08T01:00:27.737Z,95.40
2022-10-08T01:03:31.973Z,95.40
2022-10-08T01:06:44.962Z,95.50
2022-10-08T01:09:55.544Z,95.20
2022-10-08T01:13:11.247Z,95.10
2022-10-08T01:16:26.944Z,95.00
2022-10-08T01:19:50.427Z,94.90
2022-10-08T01:23:20.304Z,94.80
2022-10-08T01:26:47.828Z,94.60
2022-10-08T01:29:52.878Z,94.50
2022-10-08T01:33:01.259Z,94.40
2022-10-08T01:36:05.649Z,94.60
2022-10-08T01:39:13.731Z,94.50
2022-10-08T01:42:18.137Z,94.50
2022-10-08T01:45:26.187Z,94.30
2022-10-08T01:48:32.739Z,94.00
2022-10-08T01:51:40.814Z,94.20
2022-10-08T01:54:48.281Z,94.20
2022-10-08T01:57:52.492Z,94.10
2022-10-08T02:00:58.318Z,94.00
2022-10-08T02:04:18.794Z,93.90
2022-10-08T02:07:24.082Z,93.90
2022-10-08T02:10:27.952Z,93.80
2022-10-08T02:13:31.379Z,93.70
2022-10-08T02:16:42.574Z,93.70
2022-10-08T02:19:54.366Z,93.80
2022-10-08T02:23:00.473Z,93.80
2022-10-08T02:26:06.989Z,93.70
2022-10-08T02:29:16.357Z,93.80
2022-10-08T02:32:24.803Z,93.60
2022-10-08T02:35:34.638Z,93.90
2022-10-08T02:38:41.778Z,93.80
2022-10-08T02:41:50.168Z,93.70
2022-10-08T02:44:58.118Z,93.80
2022-10-08T02:48:08.046Z,93.80
2022-10-08T02:51:15.656Z,94.00
2022-10-08T02:54:21.442Z,93.80
2022-10-08T02:57:29.901Z,93.80
2022-10-08T03:00:37.209Z,93.70
2022-10-08T03:03:47.961Z,93.80
2022-10-08T03:06:53.312Z,93.90
2022-10-08T03:09:59.007Z,93.80
2022-10-08T03:13:02.688Z,93.90
2022-10-08T03:16:09.012Z,94.10
2022-10-08T03:19:16.331Z,94.20
2022-10-08T03:22:19.312Z,94.70
2022-10-08T03:25:22.309Z,94.40
2022-10-08T03:28:25.230Z,94.40
2022-10-08T03:31:28.286Z,94.80
2022-10-08T03:34:32.701Z,95.00
2022-10-08T03:37:35.603Z,95.50
2022-10-08T03:40:38.498Z,95.70
2022-10-08T03:43:41.949Z,95.90
2022-10-08T03:46:44.836Z,96.40
2022-10-08T03:49:49.158Z,96.80
2022-10-08T03:52:52.093Z,97.00
2022-10-08T03:55:55.501Z,97.40
2022-10-08T03:58:59.822Z,97.90
2022-10-08T04:02:02.733Z,98.10
2022-10-08T04:05:08.020Z,98.10
2022-10-08T04:08:10.882Z,98.20
2022-10-08T04:11:16.658Z,98.40
2022-10-08T04:14:19.512Z,98.40
2022-10-08T04:17:22.375Z,98.50
2022-10-08T04:20:26.594Z,98.70
2022-10-08T04:23:31.711Z,98.70
2022-10-08T04:26:34.590Z,98.60
2022-10-08T04:29:37.428Z,98.70
2022-10-08T04:32:40.308Z,98.60
2022-10-08T04:35:44.504Z,98.60
2022-10-08T04:38:48.235Z,98.90
2022-10-08T04:41:51.140Z,98.80
2022-10-08T04:44:54.014Z,99.10
2022-10-08T04:47:56.870Z,99.10
2022-10-08T04:51:04.886Z,99.30
2022-10-08T04:54:10.129Z,99.20
2022-10-08T04:57:13.172Z,99.50
2022-10-08T05:00:18.709Z,99.50
2022-10-08T05:03:21.940Z,99.40
2022-10-08T05:06:28.272Z,99.40
2022-10-08T05:09:31.222Z,99.70
2022-10-08T05:12:34.543Z,99.70
2022-10-08T05:15:37.438Z,99.50
2022-10-08T05:18:41.578Z,99.50
2022-10-08T05:21:45.790Z,99.50
2022-10-08T05:24:48.708Z,99.40
2022-10-08T05:27:51.594Z,99.40
2022-10-08T05:30:54.517Z,99.30
2022-10-08T05:33:58.232Z,99.20
2022-10-08T05:37:02.454Z,99.10
2022-10-08T05:40:05.864Z,98.90
2022-10-08T05:43:08.695Z,98.70
2022-10-08T05:46:12.562Z,98.80
2022-10-08T05:49:20.772Z,98.70
2022-10-08T05:52:27.039Z,98.60
2022-10-08T05:55:30.009Z,98.60
2022-10-08T05:58:33.897Z,98.60
2022-10-08T06:01:36.754Z,98.50
2022-10-08T06:04:39.631Z,98.50
2022-10-08T06:07:43.866Z,98.40
2022-10-08T06:10:50.812Z,98.40
2022-10-08T06:13:54.545Z,98.50
2022-10-08T06:16:57.429Z,98.60
2022-10-08T06:20:00.283Z,98.70
2022-10-08T06:23:04.713Z,98.90
2022-10-08T06:26:10.068Z,98.80
2022-10-08T06:29:16.090Z,98.90
2022-10-08T06:32:18.986Z,99.00
2022-10-08T06:35:21.881Z,99.00
2022-10-08T06:38:26.082Z,99.20
2022-10-08T06:41:30.957Z,99.10
2022-10-08T06:44:33.906Z,99.40
2022-10-08T06:47:36.764Z,99.60
2022-10-08T06:50:40.365Z,99.70
2022-10-08T06:53:47.735Z,99.50
2022-10-08T06:56:50.598Z,99.70
2022-10-08T06:59:54.494Z,99.70
2022-10-08T07:02:57.634Z,99.70
2022-10-08T07:06:02.062Z,99.70
2022-10-08T07:09:07.084Z,99.80
2022-10-08T07:12:09.984Z,99.90
2022-10-08T07:15:12.849Z,99.90
2022-10-08T07:18:16.135Z,99.90
2022-10-08T07:21:21.880Z,99.90
2022-10-08T07:24:26.074Z,99.90
2022-10-08T07:27:29.129Z,99.90
2022-10-08T07:30:33.026Z,99.90
2022-10-08T07:33:36.201Z,99.90
2022-10-08T07:36:39.900Z,99.90
2022-10-08T07:39:44.163Z,99.90
2022-10-08T07:42:47.305Z,99.90
2022-10-08T07:45:51.184Z,99.90
2022-10-08T07:48:54.898Z,99.90
2022-10-08T07:51:57.786Z,99.90
2022-10-08T07:55:02.003Z,99.90
2022-10-08T07:58:05.392Z,99.90
2022-10-08T08:01:11.179Z,99.90
2022-10-08T08:04:14.916Z,99.90
2022-10-08T08:07:17.787Z,99.90
2022-10-08T08:10:21.998Z,99.90
2022-10-08T08:13:25.168Z,99.90
2022-10-08T08:16:29.674Z,99.90
2022-10-08T08:19:32.632Z,99.90
2022-10-08T08:22:35.518Z,99.90
2022-10-08T08:28:43.406Z,99.90
2022-10-08T08:31:47.960Z,99.90
2022-10-08T08:34:50.877Z,99.90
2022-10-08T08:37:53.748Z,99.90
2022-10-08T08:41:12.761Z,99.90
2022-10-08T08:44:21.964Z,99.90
2022-10-08T08:47:32.229Z,99.90
2022-10-08T08:50:38.037Z,99.90
2022-10-08T08:53:40.931Z,99.90
2022-10-08T08:56:45.382Z,99.90
2022-10-08T08:59:50.402Z,99.90
2022-10-08T09:02:58.903Z,99.90
2022-10-08T09:06:09.765Z,99.90
2022-10-08T09:09:26.862Z,99.90
2022-10-08T09:12:37.403Z,99.90
2022-10-08T09:15:40.662Z,99.90
2022-10-08T09:18:49.637Z,99.50
2022-10-08T15:15:41.142Z,98.80
2022-10-08T15:18:45.338Z,98.90
2022-10-08T15:21:48.275Z,99.60
2022-10-08T15:24:51.149Z,99.60
2022-10-08T15:27:54.072Z,99.40
2022-10-08T15:31:05.258Z,99.70
2022-10-08T15:34:17.245Z,99.70
2022-10-08T15:37:20.220Z,99.90
2022-10-08T15:40:23.078Z,99.90
2022-10-08T15:43:33.826Z,99.80
2022-10-08T15:46:37.435Z,99.90
2022-10-08T15:49:43.667Z,99.90
2022-10-08T15:52:46.932Z,99.90
2022-10-08T15:55:55.562Z,99.90
2022-10-08T15:58:59.715Z,99.90
2022-10-08T16:02:02.644Z,99.90
2022-10-08T16:05:07.661Z,99.90
2022-10-08T16:08:10.492Z,99.90
2022-10-08T16:11:15.578Z,99.90
2022-10-08T16:14:20.884Z,99.90
2022-10-08T16:17:23.996Z,99.90
2022-10-08T16:20:28.226Z,99.90
2022-10-08T16:23:33.519Z,99.90
2022-10-08T16:26:36.948Z,99.90
2022-10-08T16:29:39.806Z,99.90
2022-10-08T16:32:42.684Z,99.90
2022-10-08T16:35:46.913Z,99.90
2022-10-08T16:38:50.094Z,99.90
2022-10-08T16:41:53.150Z,99.90
2022-10-08T16:44:56.014Z,99.90
2022-10-08T16:48:00.365Z,99.90
2022-10-08T16:51:04.952Z,99.90
2022-10-08T16:54:10.053Z,99.90
2022-10-08T16:57:12.961Z,99.90
2022-10-08T17:00:16.550Z,99.90
2022-10-08T17:03:19.396Z,99.90
2022-10-08T17:06:24.930Z,99.90
2022-10-08T17:09:27.868Z,99.90
2022-10-08T17:12:30.741Z,99.90
2022-10-08T17:15:33.644Z,99.90
2022-10-08T17:18:37.048Z,99.90
2022-10-08T17:21:41.601Z,99.90
2022-10-08T17:24:44.481Z,99.70
2022-10-08T17:27:47.362Z,99.60
2022-10-08T17:30:50.479Z,98.90
2022-10-08T17:33:53.806Z,98.70
2022-10-08T17:36:58.115Z,98.90
2022-10-08T17:40:00.978Z,98.70
2022-10-08T17:43:03.856Z,98.80
2022-10-08T17:46:07.760Z,98.50
2022-10-08T17:49:10.792Z,98.20
2022-10-08T17:52:15.112Z,98.00
2022-10-08T17:55:18.088Z,98.20
2022-10-08T17:58:20.923Z,98.00
2022-10-08T18:01:25.960Z,98.00
2022-10-08T18:04:28.925Z,98.10
2022-10-08T18:07:33.150Z,97.90
2022-10-08T18:10:38.179Z,98.30
2022-10-08T18:13:41.551Z,98.10
2022-10-08T18:16:48.161Z,98.10
2022-10-08T18:19:51.664Z,98.20
2022-10-08T18:22:55.925Z,98.20
2022-10-08T18:26:08.275Z,98.10
2022-10-08T18:29:13.501Z,98.10
2022-10-08T18:32:16.441Z,98.40
2022-10-08T18:35:19.611Z,98.40
2022-10-08T18:38:23.919Z,98.00
2022-10-08T18:41:29.220Z,98.30
2022-10-08T18:44:32.077Z,98.40
2022-10-08T18:47:34.956Z,98.30
2022-10-08T18:50:37.830Z,98.20
2022-10-08T18:53:42.953Z,98.40
2022-10-08T18:56:46.137Z,98.50
2022-10-08T18:59:50.248Z,98.50
2022-10-08T19:02:54.486Z,98.50
2022-10-08T19:05:57.611Z,98.50
2022-10-08T19:09:03.192Z,98.60
2022-10-08T19:12:07.911Z,98.70
2022-10-08T19:15:11.261Z,98.70
2022-10-08T19:18:14.124Z,98.60
2022-10-08T19:21:16.976Z,98.70
2022-10-08T19:24:23.450Z,98.30
2022-10-08T19:27:26.378Z,98.30
2022-10-08T19:30:34.180Z,98.20
2022-10-08T19:33:37.065Z,98.10
2022-10-08T19:36:40.300Z,98.10
2022-10-08T19:39:47.155Z,98.20
2022-10-08T19:42:50.526Z,98.60
2022-10-08T19:45:53.700Z,98.10
2022-10-08T19:48:58.307Z,98.10
2022-10-08T19:52:01.413Z,98.00
2022-10-08T19:55:06.508Z,98.00
2022-10-08T19:58:09.365Z,97.80
2022-10-08T20:01:15.158Z,97.40
2022-10-08T20:04:18.128Z,97.60
2022-10-08T20:07:21.017Z,97.70
2022-10-08T20:10:26.953Z,97.50
2022-10-08T20:13:29.838Z,97.30
2022-10-08T20:16:34.597Z,97.30
2022-10-08T20:19:37.676Z,97.30
2022-10-08T20:22:40.538Z,97.40
2022-10-08T20:25:46.156Z,97.50
2022-10-08T20:28:51.306Z,97.50
2022-10-08T20:31:55.969Z,97.50
2022-10-08T20:34:58.826Z,97.60
2022-10-08T20:38:01.714Z,97.80
2022-10-08T20:41:06.984Z,97.90
2022-10-08T20:44:10.245Z,97.90
2022-10-08T20:47:13.272Z,97.80
2022-10-08T20:50:16.344Z,97.80
2022-10-08T20:53:19.400Z,97.80
2022-10-08T20:56:24.884Z,97.70
2022-10-08T20:59:27.980Z,97.80
2022-10-08T21:02:30.865Z,97.70
2022-10-08T21:05:39.997Z,97.70
2022-10-08T21:08:44.903Z,97.50
2022-10-08T21:11:49.661Z,97.40
2022-10-08T21:14:52.568Z,97.60
2022-10-08T21:17:55.435Z,97.80
2022-10-08T21:21:02.496Z,97.70
2022-10-08T21:24:05.632Z,97.40
2022-10-08T21:27:09.882Z,97.40
2022-10-08T21:30:13.796Z,97.60
2022-10-08T21:33:17.774Z,97.30
2022-10-08T21:36:23.869Z,97.60
2022-10-08T21:39:26.772Z,97.50
2022-10-08T21:42:30.998Z,97.30
2022-10-08T21:45:33.888Z,97.30
2022-10-08T21:48:37.121Z,97.10
2022-10-08T21:51:40.041Z,97.20
2022-10-08T21:54:42.892Z,97.10
2022-10-08T21:57:47.269Z,97.10
2022-10-08T22:00:50.445Z,97.20
2022-10-08T22:03:57.657Z,97.10
2022-10-08T22:07:01.866Z,96.90
2022-10-08T22:10:05.062Z,97.20
2022-10-08T22:13:09.435Z,96.90
2022-10-08T22:16:14.014Z,96.90
2022-10-08T22:19:17.499Z,96.90
2022-10-08T22:22:20.626Z,96.90
2022-10-08T22:25:23.482Z,96.90
2022-10-08T22:28:28.373Z,96.70
2022-10-08T22:34:35.441Z,96.00
2022-10-08T22:37:38.322Z,96.50
2022-10-08T22:40:41.158Z,96.40
2022-10-08T22:43:46.109Z,96.40
2022-10-08T22:46:48.985Z,96.40
2022-10-08T22:49:51.824Z,96.20
2022-10-08T22:52:54.760Z,96.30
2022-10-08T22:55:57.748Z,96.40
2022-10-08T22:59:02.221Z,96.30
2022-10-08T23:02:05.179Z,96.50
2022-10-08T23:05:08.665Z,96.50
2022-10-08T23:08:11.525Z,96.80
2022-10-08T23:11:16.940Z,96.90
2022-10-08T23:14:21.404Z,96.80
2022-10-08T23:17:24.253Z,96.80
2022-10-08T23:20:27.094Z,96.60
2022-10-08T23:23:30.252Z,96.60
2022-10-08T23:26:33.121Z,96.40
2022-10-08T23:29:37.569Z,96.40
2022-10-08T23:32:40.425Z,96.50
2022-10-08T23:35:43.329Z,96.20
2022-10-08T23:38:46.754Z,96.10
2022-10-08T23:41:49.601Z,96.00
2022-10-08T23:44:53.793Z,95.90
2022-10-08T23:47:56.681Z,95.80
2022-10-08T23:50:59.636Z,95.70
2022-10-08T23:54:02.798Z,95.30
2022-10-08T23:57:05.704Z,95.50
